Time;durP1;ratioP1;P1;durP2;ratioP2;P2;SDS_P1;SDS_P2;PMS_P1;PMS_P2;Temp;Humidity;BMP_temperature;BMP_pressure;BME280_temperature;BME280_humidity;BME280_pressure;Samples;Min_cycle;Max_cycle;Signal;HPM_P1;HPM_P2
2023/06/15 00:02:14;;;;;;;4.78;4.35;;;;;;;20.11;45.83;101708.88;4984148;28;20032;-77
2023/06/15 00:04:40;;;;;;;7.53;4.40;;;;;;;20.10;46.07;101710.72;4991319;28;20015;-77
2023/06/15 00:07:07;;;;;;;5.85;4.45;;;;;;;20.07;46.65;101710.06;4989744;28;20137;-77
2023/06/15 00:09:33;;;;;;;4.55;4.15;;;;;;;20.17;46.13;101708.47;4983195;28;20022;-77
2023/06/15 00:11:58;;;;;;;7.07;4.70;;;;;;;20.19;48.80;101709.25;4980012;28;20039;-77
2023/06/15 00:14:23;;;;;;;5.30;4.80;;;;;;;20.25;47.91;101710.66;4988405;28;20038;-77
2023/06/15 00:16:52;;;;;;;5.20;4.40;;;;;;;20.23;46.09;101710.75;4989644;28;20026;-77
2023/06/15 00:19:20;;;;;;;5.32;4.65;;;;;;;20.05;46.50;101707.47;4984338;28;20102;-77
2023/06/15 00:21:48;;;;;;;4.75;4.22;;;;;;;19.81;47.20;101711.75;4984219;28;20429;-77
2023/06/15 00:24:14;;;;;;;4.93;4.50;;;;;;;19.68;47.36;101709.03;4986743;28;20027;-77
2023/06/15 00:26:39;;;;;;;5.47;4.97;;;;;;;19.60;48.02;101712.19;4971750;28;20022;-77
2023/06/15 00:29:05;;;;;;;6.53;4.50;;;;;;;19.47;48.01;101719.25;4985568;28;20049;-77
2023/06/15 00:31:30;;;;;;;4.88;4.40;;;;;;;19.39;48.17;101716.19;4968119;28;20516;-77
2023/06/15 00:33:55;;;;;;;5.50;5.00;;;;;;;19.30;48.54;101711.41;4989561;28;20046;-77
2023/06/15 00:36:20;;;;;;;6.20;4.72;;;;;;;19.28;48.23;101721.38;4982151;28;20370;-77
2023/06/15 00:38:46;;;;;;;5.53;4.60;;;;;;;19.20;48.40;101724.53;4987324;28;20034;-77
2023/06/15 00:41:11;;;;;;;9.35;4.97;;;;;;;19.16;49.43;101727.50;4983697;28;20026;-77
2023/06/15 00:43:36;;;;;;;7.97;5.30;;;;;;;19.15;48.81;101731.13;4988903;28;20371;-77
2023/06/15 00:46:03;;;;;;;11.30;4.65;;;;;;;19.13;49.09;101723.22;4986104;28;20022;-77
2023/06/15 00:48:29;;;;;;;6.28;4.95;;;;;;;19.08;48.73;101725.31;4986381;28;20035;-77
2023/06/15 00:50:55;;;;;;;7.13;4.57;;;;;;;19.05;49.19;101730.84;4985898;28;20117;-77
2023/06/15 00:53:21;;;;;;;6.15;4.50;;;;;;;19.04;48.77;101724.63;4985589;28;20121;-77
2023/06/15 00:55:48;;;;;;;7.00;4.70;;;;;;;18.96;49.34;101728.72;4986211;28;20030;-77
2023/06/15 00:58:13;;;;;;;5.13;4.55;;;;;;;18.94;48.99;101727.97;4988453;28;20474;-77
2023/06/15 01:00:39;;;;;;;5.13;4.70;;;;;;;18.94;49.26;101733.34;4981762;28;20025;-77
2023/06/15 01:03:06;;;;;;;5.22;4.60;;;;;;;18.96;48.76;101728.72;4979686;28;20068;-77
2023/06/15 01:05:34;;;;;;;5.22;4.72;;;;;;;18.94;50.12;101728.84;4964473;28;20047;-77
2023/06/15 01:08:04;;;;;;;6.93;4.60;;;;;;;19.00;49.56;101723.09;4970617;28;20035;-77
2023/06/15 01:10:31;;;;;;;7.50;4.47;;;;;;;18.94;49.91;101725.31;4961368;28;20030;-77
2023/06/15 01:12:57;;;;;;;6.05;5.18;;;;;;;18.91;49.09;101722.78;4976828;28;20042;-77
2023/06/15 01:15:23;;;;;;;5.65;4.90;;;;;;;18.81;49.88;101722.50;4968134;28;20093;-77
2023/06/15 01:17:53;;;;;;;9.30;5.03;;;;;;;18.74;49.83;101721.97;4968902;28;20537;-77
2023/06/15 01:20:27;;;;;;;7.28;5.18;;;;;;;18.67;50.22;101725.13;4963022;28;20447;-77
2023/06/15 01:23:29;;;;;;;7.80;4.90;;;;;;;18.71;49.42;101721.34;4962684;28;20054;-77
2023/06/15 01:26:15;;;;;;;6.70;5.00;;;;;;;18.62;49.86;101720.03;4963157;28;20590;-77
2023/06/15 01:28:45;;;;;;;5.20;4.70;;;;;;;18.58;50.07;101724.69;4965374;28;20694;-77
2023/06/15 01:31:11;;;;;;;5.65;5.10;;;;;;;18.52;50.41;101730.44;4967294;28;20035;-77
2023/06/15 01:33:49;;;;;;;5.00;4.60;;;;;;;18.47;50.62;101729.00;4962092;28;20034;-77
2023/06/15 01:36:15;;;;;;;6.38;5.25;;;;;;;18.25;51.39;101732.91;4964426;28;20533;-77
2023/06/15 01:38:43;;;;;;;6.82;5.43;;;;;;;18.16;51.81;101729.91;4962893;28;20178;-77
2023/06/15 01:41:10;;;;;;;7.40;5.40;;;;;;;18.15;51.77;101739.75;4966125;28;20066;-77
2023/06/15 01:43:37;;;;;;;5.80;5.30;;;;;;;18.20;51.29;101737.66;4963798;28;20383;-77
2023/06/15 01:46:04;;;;;;;8.93;5.13;;;;;;;18.18;51.63;101734.19;4959129;28;20038;-77
2023/06/15 01:48:30;;;;;;;5.85;4.80;;;;;;;18.25;51.88;101740.94;4962451;28;20050;-77
2023/06/15 01:50:56;;;;;;;7.50;5.00;;;;;;;18.30;51.35;101743.34;4959572;28;20402;-77
2023/06/15 01:53:22;;;;;;;8.18;5.85;;;;;;;18.16;52.24;101741.47;4965461;28;20030;-77
2023/06/15 01:55:48;;;;;;;9.07;5.90;;;;;;;18.19;51.33;101735.09;4965953;28;20045;-77
2023/06/15 01:58:15;;;;;;;7.20;6.50;;;;;;;18.07;52.08;101737.50;4963203;28;20514;-77
2023/06/15 02:00:41;;;;;;;6.20;5.32;;;;;;;17.98;52.38;101738.03;4966902;28;20109;-77
2023/06/15 02:03:06;;;;;;;6.38;5.57;;;;;;;17.98;52.36;101735.34;4960809;28;20129;-78
2023/06/15 02:05:32;;;;;;;6.25;5.13;;;;;;;18.05;52.01;101742.09;4974553;28;20809;-77
2023/06/15 02:07:57;;;;;;;6.63;5.57;;;;;;;18.03;52.44;101738.63;4987748;28;20034;-77
2023/06/15 02:10:23;;;;;;;6.63;6.03;;;;;;;17.85;53.13;101737.84;4963619;28;20036;-77
2023/06/15 02:12:48;;;;;;;6.68;5.78;;;;;;;17.80;52.88;101745.28;4986588;28;20042;-77
2023/06/15 02:15:14;;;;;;;6.47;5.90;;;;;;;17.80;53.20;101733.72;4987328;28;20508;-77
2023/06/15 02:17:39;;;;;;;6.60;5.47;;;;;;;17.81;52.80;101733.66;4966856;28;20126;-77
2023/06/15 02:20:09;;;;;;;8.52;5.90;;;;;;;17.77;52.97;101728.56;4978617;28;20031;-77
2023/06/15 02:22:35;;;;;;;6.35;5.75;;;;;;;17.82;51.92;101734.50;4978604;28;20058;-77
2023/06/15 02:25:00;;;;;;;9.27;5.70;;;;;;;17.84;53.29;101736.13;4982979;28;20884;-77
2023/06/15 02:27:25;;;;;;;7.45;5.60;;;;;;;17.84;53.25;101738.81;4983726;28;20054;-77
2023/06/15 02:29:51;;;;;;;6.22;5.57;;;;;;;17.80;53.20;101744.41;4983417;28;20117;-77
2023/06/15 02:32:36;;;;;;;9.55;5.90;;;;;;;17.81;52.20;101755.06;4982330;28;20398;-77
2023/06/15 02:35:06;;;;;;;7.10;6.30;;;;;;;17.66;53.19;101753.16;4982011;28;20026;-77
2023/06/15 02:37:32;;;;;;;8.15;6.20;;;;;;;17.49;54.42;101746.09;4988294;28;20026;-77
2023/06/15 02:39:58;;;;;;;6.70;6.10;;;;;;;17.50;54.17;101760.31;4982334;28;20030;-77
2023/06/15 02:42:23;;;;;;;7.22;6.05;;;;;;;17.49;54.09;101759.47;4985736;28;20030;-77
2023/06/15 02:44:48;;;;;;;8.00;5.97;;;;;;;17.52;54.24;101759.28;4983290;28;20023;-77
2023/06/15 02:47:14;;;;;;;6.47;5.88;;;;;;;17.53;54.21;101762.81;4987464;28;20030;-77
2023/06/15 02:49:39;;;;;;;8.40;6.00;;;;;;;17.55;54.71;101763.59;4987746;28;20030;-77
2023/06/15 02:52:05;;;;;;;6.93;5.63;;;;;;;17.54;54.12;101764.56;4982299;28;20473;-77
2023/06/15 02:54:30;;;;;;;6.50;5.90;;;;;;;17.50;54.43;101760.31;4968902;28;20347;-77
2023/06/15 02:56:56;;;;;;;6.63;5.60;;;;;;;17.48;53.78;101759.53;4986660;28;20031;-77
2023/06/15 02:59:25;;;;;;;7.03;5.97;;;;;;;17.44;54.44;101760.63;4982319;28;20047;-77
2023/06/15 03:01:52;;;;;;;6.97;6.15;;;;;;;17.40;54.81;101748.41;4983988;28;20026;-77
2023/06/15 03:04:21;;;;;;;7.55;5.97;;;;;;;17.42;54.48;101762.53;4987240;28;20065;-77
2023/06/15 03:06:49;;;;;;;7.20;6.35;;;;;;;17.40;53.89;101759.97;4988817;28;20074;-77
2023/06/15 03:09:17;;;;;;;7.50;6.75;;;;;;;17.40;55.17;101759.97;4986787;28;20022;-77
2023/06/15 03:11:43;;;;;;;7.57;6.72;;;;;;;17.34;54.49;101766.47;4983770;28;20125;-77
2023/06/15 03:14:10;;;;;;;6.50;5.90;;;;;;;17.32;54.39;101764.84;4988742;28;20034;-77
2023/06/15 03:16:39;;;;;;;6.43;5.80;;;;;;;17.29;54.20;101768.53;4983402;28;21541;-77
2023/06/15 03:19:07;;;;;;;7.32;6.40;;;;;;;17.28;54.69;101764.16;4989578;28;20026;-77
2023/06/15 03:21:33;;;;;;;7.82;6.03;;;;;;;17.22;54.81;101767.16;4980270;28;20475;-77
2023/06/15 03:23:58;;;;;;;6.65;5.88;;;;;;;17.23;55.18;101773.34;4989244;28;20041;-77
2023/06/15 03:26:26;;;;;;;6.75;5.85;;;;;;;17.17;55.39;101769.22;4966141;28;20035;-77
2023/06/15 03:28:52;;;;;;;6.70;5.97;;;;;;;17.14;55.52;101766.69;4989308;28;20462;-77
2023/06/15 03:31:18;;;;;;;6.97;6.38;;;;;;;17.15;55.72;101770.22;4988596;28;20041;-77
2023/06/15 03:33:45;;;;;;;7.15;6.22;;;;;;;17.14;55.79;101766.69;4989112;28;20361;-77
2023/06/15 03:36:10;;;;;;;6.47;5.88;;;;;;;17.23;56.04;101770.69;4982539;28;20033;-78
2023/06/15 03:38:35;;;;;;;6.88;6.28;;;;;;;17.28;55.14;101777.50;4966381;28;20110;-78
2023/06/15 03:41:01;;;;;;;7.07;6.47;;;;;;;17.27;55.77;101769.59;4980584;28;20026;-77
2023/06/15 03:43:26;;;;;;;8.55;6.47;;;;;;;17.23;55.54;101760.84;4968456;28;20030;-78
2023/06/15 03:45:51;;;;;;;6.88;5.97;;;;;;;17.26;56.07;101770.53;4968060;28;20473;-77
2023/06/15 03:48:16;;;;;;;8.00;7.18;;;;;;;17.26;55.62;101767.88;4989811;28;20034;-77
2023/06/15 03:50:42;;;;;;;7.57;6.88;;;;;;;17.19;55.86;101759.28;4989194;28;20029;-77
2023/06/15 03:53:07;;;;;;;8.73;6.82;;;;;;;17.16;55.62;101756.81;4984900;28;20508;-77
2023/06/15 03:55:32;;;;;;;10.68;6.40;;;;;;;17.08;56.60;101770.56;4982019;28;20022;-78
2023/06/15 03:57:57;;;;;;;7.05;6.35;;;;;;;17.13;55.85;101764.97;4967384;28;20429;-78
2023/06/15 04:00:23;;;;;;;7.03;6.30;;;;;;;17.16;56.34;101772.84;4982257;28;20196;-78
2023/06/15 04:02:48;;;;;;;7.90;7.10;;;;;;;17.20;56.35;101776.19;4985270;28;20041;-78
2023/06/15 04:05:13;;;;;;;8.02;7.15;;;;;;;17.23;55.65;101774.22;4965233;28;20105;-78
2023/06/15 04:07:39;;;;;;;9.73;7.97;;;;;;;17.17;56.31;101779.91;4967117;28;20034;-78
2023/06/15 04:10:06;;;;;;;8.82;7.97;;;;;;;17.09;56.44;101774.09;4982523;28;20030;-78
2023/06/15 04:12:31;;;;;;;8.38;7.57;;;;;;;17.03;56.35;101769.06;4988061;28;20029;-78
2023/06/15 04:14:56;;;;;;;13.65;7.93;;;;;;;17.02;56.61;101783.34;4965652;28;20046;-78
2023/06/15 04:17:21;;;;;;;7.85;7.15;;;;;;;17.06;56.60;101774.25;4985054;28;20041;-78
2023/06/15 04:19:47;;;;;;;8.95;7.80;;;;;;;17.07;56.63;101768.84;4980701;28;20034;-78
2023/06/15 04:22:12;;;;;;;8.77;7.93;;;;;;;17.14;56.73;101780.06;4982855;28;20582;-78
2023/06/15 04:24:37;;;;;;;8.88;7.75;;;;;;;17.14;56.65;101779.19;4982903;28;20037;-78
2023/06/15 04:27:03;;;;;;;10.63;8.25;;;;;;;17.02;57.40;101786.03;4984785;28;20038;-78
2023/06/15 04:29:31;;;;;;;10.63;8.00;;;;;;;17.01;57.71;101792.31;4984269;28;20031;-78
2023/06/15 04:31:57;;;;;;;8.95;8.07;;;;;;;16.98;58.48;101796.03;4979244;28;20089;-78
2023/06/15 04:34:24;;;;;;;10.48;9.45;;;;;;;16.93;59.33;101802.56;4980758;28;20026;-78
2023/06/15 04:36:50;;;;;;;13.18;8.63;;;;;;;17.00;59.01;101795.94;4962987;28;20036;-78
2023/06/15 04:39:15;;;;;;;14.98;9.30;;;;;;;16.97;59.43;101794.31;4987591;28;20038;-78
2023/06/15 04:41:40;;;;;;;14.02;8.98;;;;;;;17.13;58.94;101796.16;4984285;28;20493;-78
2023/06/15 04:44:06;;;;;;;11.98;10.23;;;;;;;17.12;59.47;101803.31;4967601;28;20068;-78
2023/06/15 04:46:32;;;;;;;12.25;9.48;;;;;;;17.12;59.05;101805.16;4983479;28;20545;-78
2023/06/15 04:48:58;;;;;;;10.85;9.75;;;;;;;17.30;58.45;101801.50;4985194;28;20030;-78
2023/06/15 04:51:23;;;;;;;13.27;11.80;;;;;;;17.33;58.36;101804.84;4983776;28;20023;-78
2023/06/15 04:53:49;;;;;;;15.93;11.45;;;;;;;17.47;57.66;101803.25;4986138;28;20015;-78
2023/06/15 04:56:15;;;;;;;15.10;10.77;;;;;;;17.58;57.63;101808.91;4985938;28;20073;-78
2023/06/15 04:58:40;;;;;;;11.85;10.65;;;;;;;17.70;57.06;101807.38;4988015;28;20510;-77
2023/06/15 05:01:06;;;;;;;12.25;11.10;;;;;;;17.78;57.17;101811.38;4985064;28;20068;-77
2023/06/15 05:03:33;;;;;;;16.65;12.30;;;;;;;17.58;58.01;101815.13;4984224;28;20034;-77
2023/06/15 05:05:58;;;;;;;14.63;12.52;;;;;;;17.63;56.86;101816.69;4979714;28;20042;-78
2023/06/15 05:08:23;;;;;;;14.90;13.07;;;;;;;17.73;57.04;101816.13;4985218;28;20089;-78
2023/06/15 05:10:49;;;;;;;17.67;11.90;;;;;;;17.89;56.66;101818.81;4984314;28;20460;-78
2023/06/15 05:13:15;;;;;;;13.73;12.05;;;;;;;18.17;56.04;101812.78;4987166;28;20025;-78
2023/06/15 05:15:40;;;;;;;14.75;13.00;;;;;;;18.05;57.19;101818.84;4978299;28;20575;-77
2023/06/15 05:18:05;;;;;;;15.55;13.90;;;;;;;17.97;57.28;101818.41;4987295;28;20041;-77
2023/06/15 05:20:31;;;;;;;15.43;13.85;;;;;;;18.04;57.08;101814.41;4981798;28;20057;-77
2023/06/15 05:22:56;;;;;;;18.52;13.57;;;;;;;18.18;57.22;101811.81;4980289;28;20105;-77
2023/06/15 05:25:22;;;;;;;13.27;12.07;;;;;;;18.34;55.92;101815.38;4984624;28;20456;-77
2023/06/15 05:27:47;;;;;;;14.45;12.98;;;;;;;18.47;56.45;101814.69;4969824;28;20034;-77
2023/06/15 05:30:13;;;;;;;14.20;12.75;;;;;;;18.58;55.45;101814.91;4985281;28;20042;-77
2023/06/15 05:32:39;;;;;;;12.95;11.75;;;;;;;18.71;55.68;101813.28;4985351;28;20030;-77
2023/06/15 05:35:08;;;;;;;14.27;12.95;;;;;;;18.79;55.56;101818.16;4983512;28;20033;-78
2023/06/15 05:37:36;;;;;;;14.50;10.98;;;;;;;18.94;55.15;101819.09;4984408;28;20497;-78
2023/06/15 05:40:03;;;;;;;12.07;10.93;;;;;;;19.07;54.73;101820.06;4982827;28;20030;-78
2023/06/15 05:42:28;;;;;;;13.20;11.70;;;;;;;19.18;57.84;101828.34;4986599;28;20449;-78
2023/06/15 05:44:54;;;;;;;14.02;12.73;;;;;;;19.16;55.34;101824.00;4986535;28;20026;-78
2023/06/15 05:47:19;;;;;;;13.30;12.00;;;;;;;19.24;55.40;101819.91;4987400;28;20032;-78
2023/06/15 05:49:45;;;;;;;12.50;10.80;;;;;;;19.31;58.90;101833.81;4981401;28;20058;-78
2023/06/15 05:52:10;;;;;;;15.13;11.70;;;;;;;19.37;54.22;101828.06;4983775;28;20037;-78
2023/06/15 05:54:36;;;;;;;12.73;11.00;;;;;;;19.42;53.80;101823.28;4967998;28;20030;-78
2023/06/15 05:57:01;;;;;;;14.63;11.80;;;;;;;19.50;54.50;101828.19;4979922;28;20226;-78
2023/06/15 05:59:27;;;;;;;15.10;11.38;;;;;;;19.59;53.22;101825.78;4981790;28;20027;-78
2023/06/15 06:01:53;;;;;;;13.98;11.98;;;;;;;19.66;53.87;101822.75;4984698;28;20058;-78
2023/06/15 06:04:18;;;;;;;16.70;11.27;;;;;;;19.68;53.79;101828.88;4964416;28;20041;-78
2023/06/15 06:06:43;;;;;;;13.40;12.00;;;;;;;19.77;56.53;101821.13;4985730;28;20050;-78
2023/06/15 06:09:08;;;;;;;13.30;12.05;;;;;;;19.86;52.45;101825.03;4971030;28;20101;-78
2023/06/15 06:11:35;;;;;;;14.55;11.55;;;;;;;19.93;52.79;101822.84;4983135;28;20037;-78
2023/06/15 06:14:00;;;;;;;14.43;11.35;;;;;;;20.05;53.89;101824.72;4986276;28;20026;-78
2023/06/15 06:16:26;;;;;;;14.10;12.38;;;;;;;20.18;52.81;101814.03;4985879;28;20385;-78
2023/06/15 06:18:51;;;;;;;14.15;12.07;;;;;;;20.32;52.05;101816.69;4987098;28;20103;-78
2023/06/15 06:21:16;;;;;;;12.80;11.15;;;;;;;20.56;51.93;101822.28;4985774;28;20049;-78
2023/06/15 06:23:41;;;;;;;19.58;11.75;;;;;;;20.75;50.55;101820.13;4981752;28;20065;-78
2023/06/15 06:26:07;;;;;;;12.68;11.30;;;;;;;21.02;49.37;101824.56;4985748;28;20065;-78
2023/06/15 06:28:32;;;;;;;12.27;11.07;;;;;;;21.09;50.23;101828.56;4986459;28;20030;-78
2023/06/15 06:30:57;;;;;;;13.52;10.77;;;;;;;21.32;48.92;101824.31;4985895;28;20035;-78
2023/06/15 06:33:22;;;;;;;15.45;10.90;;;;;;;21.51;48.10;101826.59;4985820;28;20081;-78
2023/06/15 06:35:48;;;;;;;10.73;9.63;;;;;;;21.69;47.50;101825.28;4983099;28;20048;-78
2023/06/15 06:38:13;;;;;;;17.50;12.23;;;;;;;21.74;47.74;101825.81;4986038;28;20552;-78
2023/06/15 06:40:39;;;;;;;13.35;9.75;;;;;;;21.93;49.87;101819.09;4983070;28;20030;-78
2023/06/15 06:43:04;;;;;;;11.80;8.93;;;;;;;22.10;48.15;101827.69;4982475;28;20103;-78
2023/06/15 06:45:30;;;;;;;12.40;9.63;;;;;;;22.03;47.36;101825.53;4983097;28;20089;-78
2023/06/15 06:47:55;;;;;;;11.30;10.10;;;;;;;22.12;48.94;101827.59;4983546;28;20046;-78
2023/06/15 06:50:20;;;;;;;11.82;10.50;;;;;;;22.27;46.06;101823.75;4982396;28;20026;-78
2023/06/15 06:52:45;;;;;;;17.55;10.95;;;;;;;22.28;46.64;101825.47;4982470;28;20030;-78
2023/06/15 06:55:11;;;;;;;17.13;10.00;;;;;;;22.48;47.61;101826.72;4980741;28;20026;-78
2023/06/15 06:57:36;;;;;;;15.57;10.15;;;;;;;22.52;46.87;101827.31;4980990;28;20026;-78
2023/06/15 07:00:03;;;;;;;10.98;9.20;;;;;;;22.55;44.73;101827.97;4980791;28;20027;-78
2023/06/15 07:02:28;;;;;;;13.70;9.52;;;;;;;22.40;46.64;101829.97;4980199;28;20046;-78
2023/06/15 07:04:53;;;;;;;9.65;8.63;;;;;;;22.64;45.55;101832.66;4984133;28;20031;-78
2023/06/15 07:07:19;;;;;;;9.45;8.00;;;;;;;22.84;45.33;101825.75;4964333;28;20089;-78
2023/06/15 07:09:44;;;;;;;14.30;8.68;;;;;;;23.04;46.19;101818.88;4984445;28;20034;-78
2023/06/15 07:12:09;;;;;;;13.93;9.45;;;;;;;23.20;44.98;101823.94;4985020;28;20030;-78
2023/06/15 07:14:35;;;;;;;17.30;9.55;;;;;;;23.35;43.96;101827.25;4981087;28;20077;-78
2023/06/15 07:17:00;;;;;;;27.63;9.90;;;;;;;23.49;45.87;101831.56;4984694;28;20033;-78
2023/06/15 07:19:25;;;;;;;12.15;7.80;;;;;;;23.59;45.71;101835.25;4986516;28;20092;-78
2023/06/15 07:21:50;;;;;;;14.30;8.40;;;;;;;23.70;42.61;101837.16;4985153;28;20052;-78
2023/06/15 07:24:16;;;;;;;10.98;7.70;;;;;;;23.79;41.60;101831.88;4980100;28;20042;-78
2023/06/15 07:26:41;;;;;;;8.20;6.78;;;;;;;24.03;44.64;101831.72;4986292;28;20034;-78
2023/06/15 07:29:06;;;;;;;12.45;7.53;;;;;;;24.17;41.05;101820.66;4986785;28;20026;-78
2023/06/15 07:31:32;;;;;;;9.80;6.82;;;;;;;24.78;42.56;101830.94;4987238;28;20496;-78
2023/06/15 07:33:57;;;;;;;8.43;6.43;;;;;;;25.65;39.98;101831.53;4985018;28;20062;-78
2023/06/15 07:36:22;;;;;;;6.45;5.57;;;;;;;26.44;37.29;101834.41;4981018;28;20045;-78
2023/06/15 07:38:47;;;;;;;11.40;5.80;;;;;;;26.67;34.42;101832.28;4986316;28;20030;-78
2023/06/15 07:41:13;;;;;;;9.02;6.03;;;;;;;27.15;34.41;101828.69;4986203;28;20772;-78
2023/06/15 07:43:38;;;;;;;10.55;5.32;;;;;;;27.30;33.81;101837.22;4984208;28;20073;-78
2023/06/15 07:46:03;;;;;;;11.77;6.07;;;;;;;27.41;33.12;101828.91;4985814;28;20038;-78
2023/06/15 07:48:30;;;;;;;6.60;4.90;;;;;;;28.00;32.20;101826.84;4987299;28;20717;-78
2023/06/15 07:50:56;;;;;;;10.80;4.40;;;;;;;28.66;32.23;101831.16;4987251;28;20138;-78
2023/06/15 07:53:21;;;;;;;9.02;4.22;;;;;;;28.81;30.35;101831.44;4986435;28;20533;-78
2023/06/15 07:55:46;;;;;;;5.25;3.72;;;;;;;29.33;32.49;101834.25;4989207;28;20089;-78
2023/06/15 07:58:12;;;;;;;9.55;4.70;;;;;;;29.66;29.17;101829.91;4989994;28;20077;-78
2023/06/15 08:00:37;;;;;;;5.20;3.40;;;;;;;30.37;26.38;101824.06;4968081;28;20040;-78
2023/06/15 08:03:02;;;;;;;7.97;3.60;;;;;;;30.41;28.97;101830.88;4986588;28;20019;-78
2023/06/15 08:05:28;;;;;;;6.85;3.88;;;;;;;30.54;26.17;101829.53;4988794;28;20049;-78
2023/06/15 08:07:53;;;;;;;11.77;3.72;;;;;;;30.32;27.36;101831.88;4970899;28;20525;-78
2023/06/15 08:10:19;;;;;;;9.05;3.40;;;;;;;30.82;27.64;101828.22;4988271;28;20022;-78
2023/06/15 08:12:44;;;;;;;7.50;4.45;;;;;;;31.27;27.22;101825.97;4986247;28;20026;-79
2023/06/15 08:15:09;;;;;;;7.07;4.07;;;;;;;31.29;24.64;101835.75;4986109;28;20473;-78
2023/06/15 08:17:35;;;;;;;5.43;3.60;;;;;;;31.47;24.01;101827.31;4986326;28;20300;-78
2023/06/15 08:20:01;;;;;;;4.65;3.15;;;;;;;31.84;25.18;101831.31;4986552;28;20022;-78
2023/06/15 08:22:27;;;;;;;6.72;3.42;;;;;;;31.67;22.43;101827.78;4984986;28;20026;-78
2023/06/15 08:24:53;;;;;;;5.28;3.35;;;;;;;31.89;23.61;101828.91;4966027;28;20434;-78
2023/06/15 08:27:18;;;;;;;6.93;3.47;;;;;;;32.10;23.23;101836.53;4985835;28;20030;-78
2023/06/15 08:29:44;;;;;;;86.50;8.02;;;;;;;32.29;23.21;101841.53;4983585;28;20446;-78
2023/06/15 08:32:13;;;;;;;99.53;9.52;;;;;;;32.44;23.46;101830.69;4986334;28;20601;-78
2023/06/15 08:34:42;;;;;;;13.05;4.15;;;;;;;32.63;22.11;101835.69;4985155;28;20505;-78
2023/06/15 08:37:09;;;;;;;7.93;3.28;;;;;;;32.81;22.27;101832.63;4987345;28;20080;-78
2023/06/15 08:39:34;;;;;;;6.18;3.30;;;;;;;32.65;22.44;101835.53;4966201;28;20752;-78
2023/06/15 08:42:02;;;;;;;4.80;3.25;;;;;;;31.85;22.91;101833.91;4987095;28;20454;-78
2023/06/15 08:44:29;;;;;;;5.35;3.80;;;;;;;31.77;24.63;101833.91;4968492;28;20053;-78
2023/06/15 08:46:56;;;;;;;9.20;3.72;;;;;;;32.07;23.15;101826.78;4990044;28;20026;-78
2023/06/15 08:49:23;;;;;;;5.38;3.28;;;;;;;32.36;22.51;101823.34;4985781;28;20026;-78
2023/06/15 08:51:49;;;;;;;5.85;3.70;;;;;;;32.36;22.32;101820.59;4985610;28;20469;-78
2023/06/15 08:54:18;;;;;;;6.28;3.28;;;;;;;32.01;25.57;101830.22;4989313;28;20460;-78
2023/06/15 08:56:43;;;;;;;8.68;3.67;;;;;;;31.95;25.05;101822.75;4968700;28;20022;-78
2023/06/15 08:59:08;;;;;;;5.18;3.20;;;;;;;31.94;23.90;101821.00;4984645;28;20043;-78
2023/06/15 09:01:39;;;;;;;6.53;3.53;;;;;;;31.93;23.89;101825.63;4986885;28;20510;-78
2023/06/15 09:04:05;;;;;;;6.80;3.97;;;;;;;32.25;24.86;101821.88;4991462;28;20031;-78
2023/06/15 09:06:30;;;;;;;11.40;3.75;;;;;;;32.29;22.94;101818.78;4984697;28;20293;-78
2023/06/15 09:08:55;;;;;;;4.97;3.33;;;;;;;32.49;24.60;101823.63;4988529;28;20026;-78
2023/06/15 09:11:22;;;;;;;3.60;3.20;;;;;;;32.41;24.98;101820.09;4969711;28;20443;-78
2023/06/15 09:13:49;;;;;;;7.93;3.90;;;;;;;32.24;23.95;101822.06;4988404;28;20022;-78
2023/06/15 09:16:14;;;;;;;5.40;3.67;;;;;;;32.05;23.65;101825.25;4984756;28;20152;-78
2023/06/15 09:18:51;;;;;;;4.88;3.70;;;;;;;31.46;23.80;101815.53;4964448;28;20488;-81
2023/06/15 09:21:21;;;;;;;3.88;3.55;;;;;;;31.57;23.19;101821.66;4966426;28;20026;-79
2023/06/15 09:23:47;;;;;;;7.55;3.70;;;;;;;31.02;25.47;101812.34;4979609;28;20061;-80
2023/06/15 09:26:23;;;;;;;11.95;3.90;;;;;;;30.77;25.50;101825.13;4979666;28;20065;-80
2023/06/15 09:28:49;;;;;;;4.68;3.53;;;;;;;30.70;24.85;101824.94;4987238;28;20034;-81
2023/06/15 09:31:28;;;;;;;7.80;3.72;;;;;;;30.37;25.62;101828.66;4983151;28;20041;-80
2023/06/15 09:34:21;;;;;;;9.02;4.00;;;;;;;30.09;26.62;101828.88;4983071;28;20398;-79
2023/06/15 09:36:50;;;;;;;7.15;3.75;;;;;;;30.21;25.95;101827.56;4983297;28;20058;-79
2023/06/15 09:39:22;;;;;;;5.70;3.85;;;;;;;30.50;24.81;101823.56;4983210;28;20023;-79
2023/06/15 09:41:58;;;;;;;7.65;4.03;;;;;;;30.94;25.23;101821.41;4981783;28;20112;-79
2023/06/15 09:44:25;;;;;;;5.15;3.70;;;;;;;30.15;23.94;101817.34;4982834;28;20428;-79
2023/06/15 09:46:52;;;;;;;8.35;3.90;;;;;;;29.94;24.61;101820.50;4983459;28;20021;-79
2023/06/15 09:49:25;;;;;;;7.07;3.60;;;;;;;29.43;24.32;101819.53;4980915;28;20023;-79
2023/06/15 09:51:52;;;;;;;5.50;3.65;;;;;;;29.15;26.27;101818.84;4982097;28;20386;-79
2023/06/15 09:54:32;;;;;;;6.47;3.90;;;;;;;29.40;27.16;101819.00;4988750;28;20028;-79
2023/06/15 09:56:59;;;;;;;4.20;3.80;;;;;;;29.26;27.31;101816.88;4987359;28;20509;-79
2023/06/15 09:59:25;;;;;;;6.70;3.63;;;;;;;29.39;26.78;101817.28;4982573;28;20033;-79
2023/06/15 10:01:56;;;;;;;6.00;3.35;;;;;;;29.61;27.95;101821.34;4982042;28;20022;-80
2023/06/15 10:04:25;;;;;;;6.82;3.83;;;;;;;29.59;27.16;101824.25;4983225;28;20018;-79
2023/06/15 10:06:57;;;;;;;9.43;4.05;;;;;;;29.66;26.84;101822.59;4985515;28;20045;-80
2023/06/15 10:09:29;;;;;;;4.82;3.75;;;;;;;29.85;24.63;101815.19;4983109;28;20022;-79
2023/06/15 10:12:11;;;;;;;4.38;3.65;;;;;;;30.25;24.74;101817.19;4982570;28;20117;-80
2023/06/15 10:14:42;;;;;;;6.78;3.30;;;;;;;30.85;25.08;101810.66;4986019;28;20029;-80
2023/06/15 10:17:10;;;;;;;5.55;3.47;;;;;;;30.65;24.78;101802.75;4987457;28;20064;-79
2023/06/15 10:19:41;;;;;;;5.93;3.40;;;;;;;30.45;25.97;101802.25;4989599;28;20461;-79
2023/06/15 10:22:11;;;;;;;7.25;3.50;;;;;;;30.55;25.01;101810.28;4986241;28;20034;-79
2023/06/15 10:24:37;;;;;;;8.10;3.65;;;;;;;30.61;24.05;101798.66;4982316;28;20060;-79
2023/06/15 10:27:06;;;;;;;7.00;3.72;;;;;;;30.32;25.18;101809.22;4980695;28;20030;-79
2023/06/15 10:29:39;;;;;;;6.35;3.40;;;;;;;30.86;24.95;101813.19;4980390;28;20038;-79
2023/06/15 10:32:33;;;;;;;5.97;3.53;;;;;;;31.59;24.70;101803.19;4988697;28;20037;-79
2023/06/15 10:35:36;;;;;;;5.15;3.72;;;;;;;31.38;24.08;101809.22;4981630;28;20030;-81
2023/06/15 10:38:31;;;;;;;6.10;3.67;;;;;;;31.24;23.65;101813.50;4984090;28;20030;-79
2023/06/15 10:40:58;;;;;;;4.20;3.80;;;;;;;31.59;23.46;101811.41;4984001;28;20030;-79
2023/06/15 10:43:27;;;;;;;5.65;3.42;;;;;;;31.09;22.30;101813.34;4979191;28;20034;-79
2023/06/15 10:45:52;;;;;;;4.78;3.70;;;;;;;30.93;23.08;101810.66;4980667;28;20110;-79
2023/06/15 10:48:26;;;;;;;7.00;4.10;;;;;;;30.70;25.06;101811.28;4987821;28;20370;-79
2023/06/15 10:51:02;;;;;;;8.00;4.18;;;;;;;30.59;24.04;101805.31;4981254;28;20034;-79
2023/06/15 10:53:28;;;;;;;7.40;3.83;;;;;;;30.66;23.66;101806.34;4977784;28;20459;-79
2023/06/15 10:55:55;;;;;;;8.05;3.95;;;;;;;31.19;24.07;101807.69;4986487;28;20037;-79
2023/06/15 10:58:21;;;;;;;7.25;3.85;;;;;;;31.90;22.66;101803.28;4983404;28;20033;-80
2023/06/15 11:01:08;;;;;;;4.53;3.60;;;;;;;32.82;22.38;101806.09;4983428;28;20029;-80
2023/06/15 11:03:35;;;;;;;6.30;3.70;;;;;;;33.45;22.14;101810.34;4985954;28;20030;-80
2023/06/15 11:06:07;;;;;;;8.23;3.78;;;;;;;33.64;20.68;101800.69;4988746;28;20066;-80
2023/06/15 11:08:44;;;;;;;5.18;3.80;;;;;;;33.42;21.41;101803.28;4988291;28;20030;-80
2023/06/15 11:11:11;;;;;;;8.07;3.92;;;;;;;32.39;22.30;101803.84;4986545;28;20267;-79
2023/06/15 11:13:54;;;;;;;5.93;3.97;;;;;;;31.83;23.46;101805.84;4988073;28;20398;-79
2023/06/15 11:16:24;;;;;;;4.95;3.78;;;;;;;31.88;25.18;101802.59;4982484;28;20034;-79
2023/06/15 11:19:19;;;;;;;6.15;3.85;;;;;;;32.69;23.06;101804.84;4971038;28;20500;-79
2023/06/15 11:21:57;;;;;;;4.38;3.97;;;;;;;32.54;21.56;101803.06;4971402;28;20047;-79
2023/06/15 11:24:24;;;;;;;6.80;3.60;;;;;;;32.42;21.82;101808.97;4990080;28;20034;-79